Αναφορές METAR από Ελληνικά Αεροδρόμια

Σε αυτή τη σελίδα, μπορείτε να παρακολουθείτε τις αναφορές METAR που προέρχονται από τα κυριότερα αεροδρόμια της Ελλάδας. Το περιεχόμενο αποκωδικοποιείται, οπτικοποιείται και γίνεται κατανοητό από τον καθένα με τη χρήση του όμορφου δίγλωσσου γραφικού περιβάλλοντος του meteothes.gr!

Η αρχική κωδικοποιημένη αναφορά, συμπεριλαμβάνεται επίσης στο κάτω μέρος. Σε όποια καθεστερεί η ενημέρωση, το προειδοποιητικό μήνυμα "Μη ενημερωμένο METAR!" εμφανίζεται στο πάνω μέρος της με κόκκινα γράμματα.

Εχουν προστεθεί επίσης δύο αεροδρόμια από γειτονικές χώρες, την Οχρίδα(ΠΓΔΜ) και την Σόφια(Βουλγαρία) για να ελέγχουμε την εξέλιξη των ψυχρών εισβολών από τα Βόρεια!

LGTS - Thessaloniki/Makedonia-Elev 7m
Απόσταση από meteothes.gr: Ν 13km
Ενημερώθηκε: 28/01/2020 10:20
Αίθριος
Αίθριος
 Ανεμος από μεταβλητός
Ανεμος: μεταβλητός 4 km/h
Θερμοκρασία: 9°C
Σημ. Δρόσου: 6°C
Υγρασία: 82%
Βαρόμετρο: 1016 hPa
Συνθήκες: Αίθριος
Ορατότητα: πάνω από 10 km
2020/01/28 08:20 LGTS 280820Z VRB02KT CAVOK 09/06 Q1016 NOSIG
LGAV - Athens/Elef. Venizelos-Elev 94m
Απόσταση από meteothes.gr: ΝΝΑ 312km
Ενημερώθηκε: 28/01/2020 10:20
Αίθριος
Αίθριος
 Ανεμος από ΝΔ
Ανεμος: ΝΔ 13 km/h
Θερμοκρασία: 14°C
Σημ. Δρόσου: 5°C
Υγρασία: 55%
Βαρόμετρο: 1018 hPa
Συνθήκες: Αίθριος
Ορατότητα: πάνω από 10 km
2020/01/28 08:20 LGAV 280820Z 23007KT CAVOK 14/05 Q1018 NOSIG
 
LGAL - Alexandroupolis-Elev 3m
Απόσταση από meteothes.gr: Α 251km
Ενημερώθηκε: 28/01/2020 10:20
Μερικώς νεφελώδης
Μερικώς νεφελώδης
 Ανεμος από άπνοια
Ανεμος: άπνοια
Θερμοκρασία: 9°C
Σημ. Δρόσου: 8°C
Υγρασία: 94%
Βαρόμετρο: 1015 hPa
Νέφωση: Μερικώς νεφελώδης
Ορατότητα: 10 km
Λεπτομέρειες Νεφών: Μερικώς νεφελώδης 610 m
Μερικώς νεφελώδης 762 m
2020/01/28 08:20 LGAL 280820Z 00000KT 9999 SCT020 SCT025 09/08 Q1015
LGKV - Kavala/Crysoupolis-Elev 5m
Απόσταση από meteothes.gr: ΑΒΑ 144km
Ενημερώθηκε: 28/01/2020 10:20
Διάσπαρτα Nέφη
Διάσπαρτα Nέφη
 Ανεμος από άπνοια
Ανεμος: άπνοια
Θερμοκρασία: 9°C
Σημ. Δρόσου: 7°C
Υγρασία: 87%
Βαρόμετρο: 1015 hPa
Νέφωση: Διάσπαρτα Nέφη
Ορατότητα: 10 km
Λεπτομέρειες Νεφών: Διάσπαρτα Nέφη 762 m
2020/01/28 08:20 LGKV 280820Z 00000KT 9999 FEW025 09/07 Q1015
 
LGSK - Skiathos Island-Elev 15m
Απόσταση από meteothes.gr: ΝΝΑ 168km
Ενημερώθηκε: 28/01/2020 09:50
Αίθριος
Αίθριος
 Ανεμος από άπνοια
Ανεμος: άπνοια
Θερμοκρασία: 13°C
Σημ. Δρόσου: 7°C
Υγρασία: 67%
Βαρόμετρο: 1016 hPa
Συνθήκες: Αίθριος
Ορατότητα: πάνω από 10 km
2020/01/28 07:50 LGSK 280750Z 00000KT CAVOK 13/07 Q1016
LGLM - Limnos Island-Elev 5m
Απόσταση από meteothes.gr: ΑΝΑ 210km
Ενημερώθηκε: 28/01/2020 10:20
Μερικώς νεφελώδης
Μερικώς νεφελώδης
 Ανεμος από Α
Ανεμος: Α 15 km/h
Θερμοκρασία: 12°C
Σημ. Δρόσου: 10°C
Υγρασία: 88%
Βαρόμετρο: 1015 hPa
Νέφωση: Μερικώς νεφελώδης
Ορατότητα: 10 km
Λεπτομέρειες Νεφών: Μερικώς νεφελώδης 610 m
2020/01/28 08:20 LGLM 280820Z 10008KT 9999 SCT020 12/10 Q1015
 
LGMT - Mitilini Island-Elev 17m
Απόσταση από meteothes.gr: ΑΝΑ 358km
Ενημερώθηκε: 28/01/2020 10:20
Μερικώς νεφελώδης
Μερικώς νεφελώδης
 Ανεμος από άπνοια
Ανεμος: άπνοια
Θερμοκρασία: 13°C
Σημ. Δρόσου: 10°C
Υγρασία: 82%
Βαρόμετρο: 1015 hPa
Νέφωση: Μερικώς νεφελώδης
Ορατότητα: 10 km
Λεπτομέρειες Νεφών: Διάσπαρτα Nέφη 549 m
Μερικώς νεφελώδης 762 m
2020/01/28 08:20 LGMT 280820Z 00000KT 9999 FEW018TCU SCT025 13/10 Q1015
LGSY - Skiros Island-Elev 15m
Απόσταση από meteothes.gr: ΝΑ 227km
Ενημερώθηκε: 28/01/2020 09:50
Διάσπαρτα Nέφη
Διάσπαρτα Nέφη
 Ανεμος από Δ
Ανεμος: Δ 22 km/h
Θερμοκρασία: 14°C
Σημ. Δρόσου: 7°C
Υγρασία: 63%
Βαρόμετρο: 1016 hPa
Νέφωση: Διάσπαρτα Nέφη
Ορατότητα: 10 km
Λεπτομέρειες Νεφών: Διάσπαρτα Nέφη 610 m
2020/01/28 07:50 LGSY 280750Z 28012KT 9999 FEW020 14/07 Q1016 BLU
 
LGKZ - Kozani-Elev 628m
Απόσταση από meteothes.gr: ΔΝΔ 102km
Ενημερώθηκε: 28/01/2020 09:50
Διάσπαρτα Nέφη
Διάσπαρτα Nέφη
 Ανεμος από Α
Ανεμος: Α 11 km/h
Θερμοκρασία: 8°C
Αίσθηση Ψύχρας: 6°C
Σημ. Δρόσου: 2°C
Υγρασία: 66%
Βαρόμετρο: 1017 hPa
Νέφωση: Διάσπαρτα Nέφη
Ορατότητα: 10 km
Λεπτομέρειες Νεφών: Διάσπαρτα Nέφη 2134 m
2020/01/28 07:50 LGKZ 280750Z 10006KT 9999 FEW070 08/02 Q1017
LGIO - Ioannina-Elev 476m
Απόσταση από meteothes.gr: ΔΝΔ 209km
Ενημερώθηκε: 28/01/2020 10:20
Ομίχλη, Συννεφιά
Ομίχλη, Συννεφιά
 Ανεμος από μεταβλητός
Ανεμος: μεταβλητός 2 km/h
Θερμοκρασία: 5°C
Σημ. Δρόσου: 5°C
Υγρασία: 100%
Βαρόμετρο: 1019 hPa
Συνθήκες: Ομίχλη
Νέφωση: Συννεφιά
Ορατότητα: 0 km
Λεπτομέρειες Νεφών: Συννεφιά 61 m
2020/01/28 08:20 LGIO 280820Z VRB01KT 0200 FG VV002 05/05 Q1019
 
LGZA - Zakinthos-Elev 3m
Απόσταση από meteothes.gr: ΝΝΔ 367km
Ενημερώθηκε: 28/01/2020 09:50
Μερικώς νεφελώδης
Μερικώς νεφελώδης
 Ανεμος από ΔΒΔ
Ανεμος: ΔΒΔ 7 km/h
Θερμοκρασία: 13°C
Σημ. Δρόσου: 10°C
Υγρασία: 82%
Βαρόμετρο: 1020 hPa
Νέφωση: Μερικώς νεφελώδης
Ορατότητα: 10 km
Λεπτομέρειες Νεφών: Μερικώς νεφελώδης 549 m
2020/01/28 07:50 LGZA 280750Z 30004KT 9999 SCT018 13/10 Q1020
LGKR - Corfu Island-Elev 2m
Απόσταση από meteothes.gr: ΔΝΔ 282km
Ενημερώθηκε: 28/01/2020 10:20
Διάσπαρτα Nέφη
Διάσπαρτα Nέφη
 Ανεμος από άπνοια
Ανεμος: άπνοια
Θερμοκρασία: 12°C
Σημ. Δρόσου: 10°C
Υγρασία: 88%
Βαρόμετρο: 1020 hPa
Νέφωση: Διάσπαρτα Nέφη
Ορατότητα: 10 km
Λεπτομέρειες Νεφών: Διάσπαρτα Nέφη 762 m
2020/01/28 08:20 LGKR 280820Z 00000KT 9999 FEW025 12/10 Q1020 NOSIG
 
LGSO - Syros Island-Elev 72m
Απόσταση από meteothes.gr: ΝΝΑ 397km
Ενημερώθηκε: 28/01/2020 09:50
Αίθριος
Αίθριος
 Ανεμος από ΔΒΔ
Ανεμος: ΔΒΔ 22 km/h
Θερμοκρασία: 13°C
Σημ. Δρόσου: 7°C
Υγρασία: 67%
Βαρόμετρο: 1017 hPa
Συνθήκες: Αίθριος
Ορατότητα: πάνω από 10 km
2020/01/28 07:50 LGSO 280750Z 29012KT CAVOK 13/07 Q1017
LGMK - Mikonos Island-Elev 123m
Απόσταση από meteothes.gr: ΝΝΑ 412km
Ενημερώθηκε: 28/01/2020 10:20
Αίθριος
Αίθριος
 Ανεμος από ΔΒΔ
Ανεμος: ΔΒΔ 9 km/h
Θερμοκρασία: 13°C
Σημ. Δρόσου: 7°C
Υγρασία: 67%
Βαρόμετρο: 1017 hPa
Συνθήκες: Αίθριος
Ορατότητα: πάνω από 10 km
2020/01/28 08:20 LGMK 280820Z 30005KT CAVOK 13/07 Q1017
 
LGSR - Santorini Island-Elev 40m
Απόσταση από meteothes.gr: ΝΝΑ 520km
Ενημερώθηκε: 28/01/2020 10:20
Μερικώς νεφελώδης
Μερικώς νεφελώδης
 Ανεμος από ΒΔ
Ανεμος: ΒΔ 15 km/h
Θερμοκρασία: 14°C
Σημ. Δρόσου: 10°C
Υγρασία: 77%
Βαρόμετρο: 1017 hPa
Νέφωση: Μερικώς νεφελώδης
Ορατότητα: 10 km
Λεπτομέρειες Νεφών: Μερικώς νεφελώδης 762 m
2020/01/28 08:20 LGSR 280820Z 31008KT 9999 SCT025 14/10 Q1017
LGKL - Kalamata-Elev 8m
Απόσταση από meteothes.gr: Ν 405km
Ενημερώθηκε: 28/01/2020 10:20
Κυρίως νεφελώδης
Κυρίως νεφελώδης
 Ανεμος από Β
Ανεμος: Β 9 km/h
Θερμοκρασία: 13°C
Σημ. Δρόσου: 8°C
Υγρασία: 72%
Βαρόμετρο: 1020 hPa
Νέφωση: Κυρίως νεφελώδης
Ορατότητα: 8 km
Λεπτομέρειες Νεφών: Μερικώς νεφελώδης 762 m
Κυρίως νεφελώδης 2438 m
2020/01/28 08:20 LGKL 280820Z 36005KT 8000 SCT025 BKN080 13/08 Q1020
 
LGIR - Iraklion/Crete-Elev 5m
Απόσταση από meteothes.gr: ΝΝΑ 622km
Ενημερώθηκε: 28/01/2020 10:20
Μερικώς νεφελώδης
Μερικώς νεφελώδης
 Ανεμος από Δ
Ανεμος: Δ 30 km/h
Θερμοκρασία: 16°C
Σημ. Δρόσου: 9°C
Υγρασία: 63%
Βαρόμετρο: 1018 hPa
Νέφωση: Μερικώς νεφελώδης
Ορατότητα: 10 km
Λεπτομέρειες Νεφών: Μερικώς νεφελώδης 762 m
2020/01/28 08:20 LGIR 280820Z 28016KT 9999 SCT025 16/09 Q1018 NOSIG
LGRP - Rhodes-Elev 5m
Απόσταση από meteothes.gr: ΝΑ 649km
Ενημερώθηκε: 28/01/2020 10:20
Μερικώς νεφελώδης
Μερικώς νεφελώδης
 Ανεμος από μεταβλητός
Ανεμος: μεταβλητός 6 km/h
Θερμοκρασία: 15°C
Σημ. Δρόσου: 11°C
Υγρασία: 77%
Βαρόμετρο: 1016 hPa
Νέφωση: Μερικώς νεφελώδης
Ορατότητα: 10 km
Λεπτομέρειες Νεφών: Διάσπαρτα Nέφη 549 m
Μερικώς νεφελώδης 762 m
2020/01/28 08:20 LGRP 280820Z VRB03KT 9999 FEW018TCU SCT025 15/11 Q1016 NOSIG
 
LWOH - Ohrid/FYROM-Elev 761m
Απόσταση από meteothes.gr: ΔΒΔ 188km
Ενημερώθηκε: 28/01/2020 10:30
Μερικώς νεφελώδης
Μερικώς νεφελώδης
 Ανεμος από ΝΝΑ
Ανεμος: ΝΝΑ 7 km/h
Θερμοκρασία: 8°C
Αίσθηση Ψύχρας: 7°C
Σημ. Δρόσου: 4°C
Υγρασία: 76%
Βαρόμετρο: 1017 hPa
Νέφωση: Μερικώς νεφελώδης
Ορατότητα: 10 km
Λεπτομέρειες Νεφών: Μερικώς νεφελώδης 1219 m
2020/01/28 08:30 LWOH 280830Z 15004KT 9999 SCT040 08/04 Q1017
LBSF - Sofia/Bulgaria-Elev 595m
Απόσταση από meteothes.gr: Β 227km
Ενημερώθηκε: 28/01/2020 10:30
Αίθριος
Αίθριος
 Ανεμος από Δ
Ανεμος: Δ 9 km/h
Θερμοκρασία: 5°C
Αίσθηση Ψύχρας: 3°C
Σημ. Δρόσου: 2°C
Υγρασία: 81%
Βαρόμετρο: 1015 hPa
Συνθήκες: Αίθριος
Ορατότητα: πάνω από 10 km
2020/01/28 08:30 LBSF 280830Z 26005KT CAVOK 05/02 Q1015 R99/19//95 NOSIG

(*) Μερικές αναφορές παρουσιάζουν λιγότερα στοιχεία γιατί οι αρχικές είναι ελλιπείς ή έχουν λάθος μορφοποίηση!

Please disable your adblock and script blockers to view this page